F/V Harvestor — WDC8229 — position and weather

sailwx.info

Track history (hours):
 
Tides and Currents Weather Stations Pressure Air Temp Water Temp Dewpoint Dewpoint Depression Visibility Wind Speed Wind Dir Waves Ship Positions

F/V Harvestor

More information available from US FCC via Universal Licensing System and Coast Guard Vessel Documentation Center.

Last reported at 2014-Aug-28 00:32 UTC. Time now 2014-Aug-28 01:21 UTC.
Position N 48°19' W 122°30'.

Length 40 m.

Type: Fishing. MMSI: 367083650.

Date/timePositionNaut miles runAvg speedWind from/ knotsBaromVisibWave heightAir tempDewpointWater temp
2014-Aug-28 00:32N 48°19' W 122°30'6 5.5
2014-Aug-27 23:23N 48°24' W 122°34'0 0.0
2014-Aug-27 14:29N 48°24' W 122°34'0 0.0
2014-Aug-27 13:28N 48°24' W 122°34'0 0.0
2014-Aug-27 12:29N 48°24' W 122°34'0 0.0
2014-Aug-27 11:27N 48°24' W 122°34'0 0.0
2014-Aug-27 08:10N 48°24' W 122°34'0 0.0
2014-Aug-27 07:24N 48°24' W 122°34'0 0.0
2014-Aug-27 06:32N 48°24' W 122°34'0 0.0
2014-Aug-27 05:04N 48°24' W 122°34'0 0.0
2014-Aug-27 04:33N 48°24' W 122°34'0 0.0
2014-Aug-27 03:33N 48°24' W 122°34'0 0.1
2014-Aug-27 02:31N 48°25' W 122°34'8 8.0
2014-Aug-27 01:33N 48°17' W 122°30'9 8.1
2014-Aug-27 00:28N 48°08' W 122°32'8 8.2
2014-Aug-26 23:33N 48°03' W 122°24'8 7.9
2014-Aug-26 22:33N 47°55' W 122°21'8 8.2
2014-Aug-26 21:33N 47°48' W 122°25'8 8.1
2014-Aug-26 20:33N 47°40' W 122°27'3 2.9
2014-Aug-26 19:33N 47°38' W 122°23'0 0.0
2014-Aug-26 18:33N 47°38' W 122°23'0 0.0
2014-Aug-26 17:33N 47°38' W 122°23'0 0.0
2014-Aug-26 16:33N 47°38' W 122°23'0 0.0
2014-Aug-26 15:33N 47°38' W 122°23'0 0.0
2014-Aug-26 14:33N 47°38' W 122°23'0 0.0
2014-Aug-26 13:33N 47°38' W 122°23'0 0.0
2014-Aug-26 12:33N 47°38' W 122°23'0 0.0
2014-Aug-26 11:33N 47°38' W 122°23'0 0.0
2014-Aug-26 10:33N 47°38' W 122°23'0 0.0
2014-Aug-26 09:33N 47°38' W 122°23'0 0.0
2014-Aug-26 08:33N 47°38' W 122°23'0 0.0
2014-Aug-26 07:33N 47°38' W 122°23'0 0.0
2014-Aug-26 06:33N 47°38' W 122°23'0 0.0
2014-Aug-26 05:33N 47°38' W 122°23'4 4.5
2014-Aug-26 04:33N 47°42' W 122°26'8 7.9
2014-Aug-26 03:33N 47°50' W 122°24'9 8.6
2014-Aug-26 02:33N 47°58' W 122°20'8 8.3
2014-Aug-26 01:33N 48°05' W 122°27'8 8.2
2014-Aug-26 00:31N 48°13' W 122°33'7 7.0
2014-Aug-25 23:33N 48°19' W 122°31'6 5.3
2014-Aug-25 22:30N 48°24' W 122°34'0 0.0
2014-Aug-25 21:33N 48°24' W 122°34'0 0.0
2014-Aug-25 20:23N 48°24' W 122°34'0 0.0
2014-Aug-25 19:28N 48°24' W 122°34'0 0.0
2014-Aug-25 18:33N 48°24' W 122°34'0 0.0
2014-Aug-25 17:33N 48°24' W 122°34'0 0.0
2014-Aug-25 16:33N 48°24' W 122°34'0 0.0
2014-Aug-25 13:06N 48°24' W 122°34'0 0.0
2014-Aug-25 12:33N 48°24' W 122°34'0 0.0
2014-Aug-25 11:32N 48°24' W 122°34'0 0.0
2014-Aug-25 10:33N 48°24' W 122°34'0 0.0
2014-Aug-25 09:33N 48°24' W 122°34'3 3.2
2014-Aug-25 08:33N 48°21' W 122°33'6 6.3
2014-Aug-25 07:33N 48°15' W 122°32'8 7.6
2014-Aug-25 06:31N 48°07' W 122°30'7 7.3
2014-Aug-25 05:33N 48°03' W 122°23'7 7.0
2014-Aug-25 04:33N 47°56' W 122°21'8 7.7
2014-Aug-25 03:33N 47°49' W 122°27'5 4.8
2014-Aug-25 02:33N 47°44' W 122°26'7 6.7
2014-Aug-25 01:33N 47°38' W 122°23'0 0.0
2014-Aug-25 00:21N 47°38' W 122°23'0 0.0
2014-Aug-24 23:32N 47°38' W 122°23'0 0.0
2014-Aug-24 22:33N 47°38' W 122°23'0 0.0
2014-Aug-24 21:33N 47°38' W 122°23'0 0.0
2014-Aug-24 20:33N 47°38' W 122°23'0 0.0
2014-Aug-24 19:33N 47°38' W 122°23'0 0.0
2014-Aug-24 18:33N 47°38' W 122°23'0 0.0
2014-Aug-24 17:33N 47°38' W 122°23'0 0.0
2014-Aug-24 16:32N 47°38' W 122°23'0 0.0
2014-Aug-24 15:16N 47°38' W 122°23'0 0.0
2014-Aug-24 14:33N 47°38' W 122°23'0 0.0
2014-Aug-24 13:33N 47°38' W 122°23'0 0.0
2014-Aug-24 12:30N 47°38' W 122°23'0 0.0
2014-Aug-24 11:33N 47°38' W 122°23'0 0.0
2014-Aug-24 09:28N 47°38' W 122°23'0 0.0
2014-Aug-24 07:33N 47°38' W 122°23'0 0.0
2014-Aug-24 06:33N 47°38' W 122°23'6 6.4
2014-Aug-24 05:33N 47°43' W 122°28'8 8.2
2014-Aug-24 04:33N 47°51' W 122°29'7 6.8
2014-Aug-24 03:30N 47°57' W 122°35'6 6.7
2014-Aug-24 02:33N 48°03' W 122°39'7 6.6
2014-Aug-24 01:28N 48°09' W 122°45'7 7.6
2014-Aug-24 00:32N 48°11' W 122°55'9 9.1
2014-Aug-23 23:31N 48°11' W 123°09'9 9.4
2014-Aug-23 22:33N 48°09' W 123°22'2 1.9
2014-Aug-23 21:33N 48°08' W 123°25'0 0.0
2014-Aug-23 20:33N 48°08' W 123°25'0 0.0
2014-Aug-23 19:33N 48°08' W 123°25'1 0.1
2014-Aug-23 03:33N 48°08' W 123°26'0 0.0
2014-Aug-23 02:33N 48°08' W 123°26'0 0.0
2014-Aug-23 01:33N 48°08' W 123°26'0 0.0
2014-Aug-23 00:33N 48°08' W 123°26'0 0.0
2014-Aug-22 23:33N 48°08' W 123°26'1 1.2
2014-Aug-22 22:33N 48°08' W 123°25'0 0.0
2014-Aug-22 21:33N 48°08' W 123°25'0 0.0
2014-Aug-22 20:33N 48°08' W 123°25'0 0.0
2014-Aug-22 19:33N 48°08' W 123°25'0 0.0
2014-Aug-22 18:33N 48°08' W 123°25'0 0.0
2014-Aug-22 17:31N 48°08' W 123°25'0 0.0
2014-Aug-22 16:33N 48°08' W 123°25'0 0.0
2014-Aug-22 15:33N 48°08' W 123°25'0 0.0
2014-Aug-22 14:33N 48°08' W 123°25'0 0.0
2014-Aug-22 13:33N 48°08' W 123°25'0 0.0
2014-Aug-22 12:33N 48°08' W 123°25'0 0.0
2014-Aug-22 11:33N 48°08' W 123°25'0 0.0
2014-Aug-22 10:33N 48°08' W 123°25'0 0.0
2014-Aug-22 09:33N 48°08' W 123°25'2 1.8
2014-Aug-22 08:33N 48°08' W 123°22'8 7.6
2014-Aug-22 07:33N 48°11' W 123°12'8 7.6
2014-Aug-22 06:33N 48°12' W 123°01'8 7.9
2014-Aug-22 05:30N 48°12' W 122°48'8 8.5
2014-Aug-22 04:32N 48°06' W 122°39'9 9.2
2014-Aug-22 03:33N 47°58' W 122°34'9 8.6
2014-Aug-22 02:33N 47°51' W 122°27'8 8.5
2014-Aug-22 01:33N 47°42' W 122°26'5 5.1
2014-Aug-22 00:33N 47°38' W 122°23'0 0.0
2014-Aug-21 23:33N 47°38' W 122°23'0 0.0
2014-Aug-21 22:33N 47°38' W 122°23'0 0.0
2014-Aug-21 21:33N 47°38' W 122°23'0 0.0
2014-Aug-21 20:33N 47°38' W 122°23'0 0.0
2014-Aug-21 19:33N 47°38' W 122°23'0 0.1
2014-Aug-21 18:33N 47°38' W 122°23'0 0.0
2014-Aug-21 17:33N 47°38' W 122°23'0 0.0
2014-Aug-21 16:33N 47°38' W 122°23'0 0.0
2014-Aug-21 15:33N 47°38' W 122°23'0 0.0
2014-Aug-21 14:33N 47°38' W 122°23'0 0.0
2014-Aug-21 13:33N 47°38' W 122°23'0 0.0
2014-Aug-21 12:33N 47°38' W 122°23'0 0.0
2014-Aug-21 11:33N 47°38' W 122°23'0 0.0
2014-Aug-21 10:33N 47°38' W 122°23'0 0.0
2014-Aug-21 09:33N 47°38' W 122°23'0 0.0
2014-Aug-21 08:33N 47°38' W 122°23'0 0.0
2014-Aug-21 07:33N 47°38' W 122°23'0 0.0
2014-Aug-21 06:33N 47°38' W 122°23'0 0.0
2014-Aug-21 05:33N 47°38' W 122°23'0 0.0
2014-Aug-21 04:33N 47°38' W 122°23'4 4.1
2014-Aug-21 03:33N 47°42' W 122°26'8 7.7
2014-Aug-21 02:33N 47°49' W 122°24'8 8.1
2014-Aug-21 01:33N 47°57' W 122°21'8 7.9
2014-Aug-21 00:33N 48°04' W 122°25'8 7.9
2014-Aug-20 23:32N 48°11' W 122°33'7 7.2
2014-Aug-20 22:31N 48°18' W 122°30'7 2.3
2014-Aug-20 19:24N 48°24' W 122°34'0 0.0
2014-Aug-20 14:22N 48°24' W 122°34'0 0.0
2014-Aug-20 13:33N 48°25' W 122°34'0 0.0
2014-Aug-20 12:31N 48°25' W 122°34'3 2.6
2014-Aug-20 11:31N 48°22' W 122°34'7 6.8
2014-Aug-20 10:33N 48°15' W 122°32'8 7.3
2014-Aug-20 09:28N 48°08' W 122°31'7 7.5
2014-Aug-20 08:33N 48°03' W 122°23'7 7.2
2014-Aug-20 07:33N 47°56' W 122°21'7 7.0
2014-Aug-20 06:33N 47°50' W 122°25'8 8.2
2014-Aug-20 05:33N 47°42' W 122°27'4 4.3
2014-Aug-20 04:33N 47°38' W 122°23'0 0.0
2014-Aug-20 03:33N 47°38' W 122°23'0 0.0
2014-Aug-20 02:33N 47°38' W 122°23'0 0.0
2014-Aug-20 01:33N 47°38' W 122°23'0 0.0
2014-Aug-20 00:33N 47°38' W 122°23'0 0.0
2014-Aug-19 23:33N 47°38' W 122°23'0 0.0
2014-Aug-19 22:33N 47°38' W 122°23'0 0.0
2014-Aug-19 21:33N 47°38' W 122°23'0 0.0
2014-Aug-19 20:33N 47°38' W 122°23'0 0.0
2014-Aug-19 19:33N 47°38' W 122°23'0 0.0
2014-Aug-19 18:33N 47°38' W 122°23'0 0.0
2014-Aug-19 17:33N 47°38' W 122°23'0 0.0
2014-Aug-19 16:33N 47°38' W 122°23'0 0.0
2014-Aug-19 15:33N 47°38' W 122°23'0 0.0
2014-Aug-19 14:33N 47°38' W 122°23'0 0.0
2014-Aug-19 13:33N 47°38' W 122°23'0 0.0
2014-Aug-19 12:33N 47°38' W 122°23'0 0.0
2014-Aug-19 11:33N 47°38' W 122°23'0 0.0
2014-Aug-19 10:33N 47°38' W 122°23'0 0.0
2014-Aug-19 09:33N 47°38' W 122°23'0 0.0
2014-Aug-19 08:33N 47°38' W 122°23'0 0.0
2014-Aug-19 07:33N 47°38' W 122°23'0 0.0
2014-Aug-19 06:33N 47°38' W 122°23'0 0.0
2014-Aug-19 05:33N 47°38' W 122°23'0 0.0
2014-Aug-19 04:33N 47°38' W 122°23'0 0.0
2014-Aug-19 03:33N 47°38' W 122°23'0 0.0
2014-Aug-19 02:33N 47°38' W 122°23'0 0.0
2014-Aug-19 01:33N 47°38' W 122°23'5 4.9
2014-Aug-19 00:33N 47°43' W 122°26'8 8.3
2014-Aug-18 23:33N 47°51' W 122°24'9 8.8
2014-Aug-18 22:33N 47°59' W 122°21'11 8.6
2014-Aug-18 21:15N 48°08' W 122°31'6 8.5
2014-Aug-18 20:33N 48°14' W 122°33'6 6.4
2014-Aug-18 19:33N 48°20' W 122°32'4 0.3
2014-Aug-18 06:12N 48°24' W 122°34'2 1.5
2014-Aug-18 04:32N 48°22' W 122°34'7 7.3
2014-Aug-18 03:33N 48°15' W 122°32'8 7.6
2014-Aug-18 02:32N 48°07' W 122°30'8 7.6
2014-Aug-18 01:29N 48°02' W 122°22'7 7.6
2014-Aug-18 00:33N 47°55' W 122°21'  
Track history (hours):
 
Tides and Currents Weather Stations Pressure Air Temp Water Temp Dewpoint Dewpoint Depression Visibility Wind Speed Wind Dir Waves Ship Positions

F/V Harvestor

More information available from US FCC via Universal Licensing System and Coast Guard Vessel Documentation Center.

Last reported at 2014-Aug-28 00:32 UTC. Time now 2014-Aug-28 01:21 UTC.
Position N 48°19' W 122°30'.

Length 40 m.

Type: Fishing. MMSI: 367083650.

Date/timePositionNaut miles runAvg speedWind from/ knotsBaromVisibWave heightAir tempDewpointWater temp
2014-Aug-28 00:32N 48°19' W 122°30'6 5.5
2014-Aug-27 23:23N 48°24' W 122°34'0 0.0
2014-Aug-27 14:29N 48°24' W 122°34'0 0.0
2014-Aug-27 13:28N 48°24' W 122°34'0 0.0
2014-Aug-27 12:29N 48°24' W 122°34'0 0.0
2014-Aug-27 11:27N 48°24' W 122°34'0 0.0
2014-Aug-27 08:10N 48°24' W 122°34'0 0.0
2014-Aug-27 07:24N 48°24' W 122°34'0 0.0
2014-Aug-27 06:32N 48°24' W 122°34'0 0.0
2014-Aug-27 05:04N 48°24' W 122°34'0 0.0
2014-Aug-27 04:33N 48°24' W 122°34'0 0.0
2014-Aug-27 03:33N 48°24' W 122°34'0 0.1
2014-Aug-27 02:31N 48°25' W 122°34'8 8.0
2014-Aug-27 01:33N 48°17' W 122°30'9 8.1
2014-Aug-27 00:28N 48°08' W 122°32'8 8.2
2014-Aug-26 23:33N 48°03' W 122°24'8 7.9
2014-Aug-26 22:33N 47°55' W 122°21'8 8.2
2014-Aug-26 21:33N 47°48' W 122°25'8 8.1
2014-Aug-26 20:33N 47°40' W 122°27'3 2.9
2014-Aug-26 19:33N 47°38' W 122°23'0 0.0
2014-Aug-26 18:33N 47°38' W 122°23'0 0.0
2014-Aug-26 17:33N 47°38' W 122°23'0 0.0
2014-Aug-26 16:33N 47°38' W 122°23'0 0.0
2014-Aug-26 15:33N 47°38' W 122°23'0 0.0
2014-Aug-26 14:33N 47°38' W 122°23'0 0.0
2014-Aug-26 13:33N 47°38' W 122°23'0 0.0
2014-Aug-26 12:33N 47°38' W 122°23'0 0.0
2014-Aug-26 11:33N 47°38' W 122°23'0 0.0
2014-Aug-26 10:33N 47°38' W 122°23'0 0.0
2014-Aug-26 09:33N 47°38' W 122°23'0 0.0
2014-Aug-26 08:33N 47°38' W 122°23'0 0.0
2014-Aug-26 07:33N 47°38' W 122°23'0 0.0
2014-Aug-26 06:33N 47°38' W 122°23'0 0.0
2014-Aug-26 05:33N 47°38' W 122°23'4 4.5
2014-Aug-26 04:33N 47°42' W 122°26'8 7.9
2014-Aug-26 03:33N 47°50' W 122°24'9 8.6
2014-Aug-26 02:33N 47°58' W 122°20'8 8.3
2014-Aug-26 01:33N 48°05' W 122°27'8 8.2
2014-Aug-26 00:31N 48°13' W 122°33'7 7.0
2014-Aug-25 23:33N 48°19' W 122°31'6 5.3
2014-Aug-25 22:30N 48°24' W 122°34'0 0.0
2014-Aug-25 21:33N 48°24' W 122°34'0 0.0
2014-Aug-25 20:23N 48°24' W 122°34'0 0.0
2014-Aug-25 19:28N 48°24' W 122°34'0 0.0
2014-Aug-25 18:33N 48°24' W 122°34'0 0.0
2014-Aug-25 17:33N 48°24' W 122°34'0 0.0
2014-Aug-25 16:33N 48°24' W 122°34'0 0.0
2014-Aug-25 13:06N 48°24' W 122°34'0 0.0
2014-Aug-25 12:33N 48°24' W 122°34'0 0.0
2014-Aug-25 11:32N 48°24' W 122°34'0 0.0
2014-Aug-25 10:33N 48°24' W 122°34'0 0.0
2014-Aug-25 09:33N 48°24' W 122°34'3 3.2
2014-Aug-25 08:33N 48°21' W 122°33'6 6.3
2014-Aug-25 07:33N 48°15' W 122°32'8 7.6
2014-Aug-25 06:31N 48°07' W 122°30'7 7.3
2014-Aug-25 05:33N 48°03' W 122°23'7 7.0
2014-Aug-25 04:33N 47°56' W 122°21'8 7.7
2014-Aug-25 03:33N 47°49' W 122°27'5 4.8
2014-Aug-25 02:33N 47°44' W 122°26'7 6.7
2014-Aug-25 01:33N 47°38' W 122°23'0 0.0
2014-Aug-25 00:21N 47°38' W 122°23'0 0.0
2014-Aug-24 23:32N 47°38' W 122°23'0 0.0
2014-Aug-24 22:33N 47°38' W 122°23'0 0.0
2014-Aug-24 21:33N 47°38' W 122°23'0 0.0
2014-Aug-24 20:33N 47°38' W 122°23'0 0.0
2014-Aug-24 19:33N 47°38' W 122°23'0 0.0
2014-Aug-24 18:33N 47°38' W 122°23'0 0.0
2014-Aug-24 17:33N 47°38' W 122°23'0 0.0
2014-Aug-24 16:32N 47°38' W 122°23'0 0.0
2014-Aug-24 15:16N 47°38' W 122°23'0 0.0
2014-Aug-24 14:33N 47°38' W 122°23'0 0.0
2014-Aug-24 13:33N 47°38' W 122°23'0 0.0
2014-Aug-24 12:30N 47°38' W 122°23'0 0.0
2014-Aug-24 11:33N 47°38' W 122°23'0 0.0
2014-Aug-24 09:28N 47°38' W 122°23'0 0.0
2014-Aug-24 07:33N 47°38' W 122°23'0 0.0
2014-Aug-24 06:33N 47°38' W 122°23'6 6.4
2014-Aug-24 05:33N 47°43' W 122°28'8 8.2
2014-Aug-24 04:33N 47°51' W 122°29'7 6.8
2014-Aug-24 03:30N 47°57' W 122°35'6 6.7
2014-Aug-24 02:33N 48°03' W 122°39'7 6.6
2014-Aug-24 01:28N 48°09' W 122°45'7 7.6
2014-Aug-24 00:32N 48°11' W 122°55'9 9.1
2014-Aug-23 23:31N 48°11' W 123°09'9 9.4
2014-Aug-23 22:33N 48°09' W 123°22'2 1.9
2014-Aug-23 21:33N 48°08' W 123°25'0 0.0
2014-Aug-23 20:33N 48°08' W 123°25'0 0.0
2014-Aug-23 19:33N 48°08' W 123°25'1 0.1
2014-Aug-23 03:33N 48°08' W 123°26'0 0.0
2014-Aug-23 02:33N 48°08' W 123°26'0 0.0
2014-Aug-23 01:33N 48°08' W 123°26'0 0.0
2014-Aug-23 00:33N 48°08' W 123°26'0 0.0
2014-Aug-22 23:33N 48°08' W 123°26'1 1.2
2014-Aug-22 22:33N 48°08' W 123°25'0 0.0
2014-Aug-22 21:33N 48°08' W 123°25'0 0.0
2014-Aug-22 20:33N 48°08' W 123°25'0 0.0
2014-Aug-22 19:33N 48°08' W 123°25'0 0.0
2014-Aug-22 18:33N 48°08' W 123°25'0 0.0
2014-Aug-22 17:31N 48°08' W 123°25'0 0.0
2014-Aug-22 16:33N 48°08' W 123°25'0 0.0
2014-Aug-22 15:33N 48°08' W 123°25'0 0.0
2014-Aug-22 14:33N 48°08' W 123°25'0 0.0
2014-Aug-22 13:33N 48°08' W 123°25'0 0.0
2014-Aug-22 12:33N 48°08' W 123°25'0 0.0
2014-Aug-22 11:33N 48°08' W 123°25'0 0.0
2014-Aug-22 10:33N 48°08' W 123°25'0 0.0
2014-Aug-22 09:33N 48°08' W 123°25'2 1.8
2014-Aug-22 08:33N 48°08' W 123°22'8 7.6
2014-Aug-22 07:33N 48°11' W 123°12'8 7.6
2014-Aug-22 06:33N 48°12' W 123°01'8 7.9
2014-Aug-22 05:30N 48°12' W 122°48'8 8.5
2014-Aug-22 04:32N 48°06' W 122°39'9 9.2
2014-Aug-22 03:33N 47°58' W 122°34'9 8.6
2014-Aug-22 02:33N 47°51' W 122°27'8 8.5
2014-Aug-22 01:33N 47°42' W 122°26'5 5.1
2014-Aug-22 00:33N 47°38' W 122°23'0 0.0
2014-Aug-21 23:33N 47°38' W 122°23'0 0.0
2014-Aug-21 22:33N 47°38' W 122°23'0 0.0
2014-Aug-21 21:33N 47°38' W 122°23'0 0.0
2014-Aug-21 20:33N 47°38' W 122°23'0 0.0
2014-Aug-21 19:33N 47°38' W 122°23'0 0.1
2014-Aug-21 18:33N 47°38' W 122°23'0 0.0
2014-Aug-21 17:33N 47°38' W 122°23'0 0.0
2014-Aug-21 16:33N 47°38' W 122°23'0 0.0
2014-Aug-21 15:33N 47°38' W 122°23'0 0.0
2014-Aug-21 14:33N 47°38' W 122°23'0 0.0
2014-Aug-21 13:33N 47°38' W 122°23'0 0.0
2014-Aug-21 12:33N 47°38' W 122°23'0 0.0
2014-Aug-21 11:33N 47°38' W 122°23'0 0.0
2014-Aug-21 10:33N 47°38' W 122°23'0 0.0
2014-Aug-21 09:33N 47°38' W 122°23'0 0.0
2014-Aug-21 08:33N 47°38' W 122°23'0 0.0
2014-Aug-21 07:33N 47°38' W 122°23'0 0.0
2014-Aug-21 06:33N 47°38' W 122°23'0 0.0
2014-Aug-21 05:33N 47°38' W 122°23'0 0.0
2014-Aug-21 04:33N 47°38' W 122°23'4 4.1
2014-Aug-21 03:33N 47°42' W 122°26'8 7.7
2014-Aug-21 02:33N 47°49' W 122°24'8 8.1
2014-Aug-21 01:33N 47°57' W 122°21'8 7.9
2014-Aug-21 00:33N 48°04' W 122°25'8 7.9
2014-Aug-20 23:32N 48°11' W 122°33'7 7.2
2014-Aug-20 22:31N 48°18' W 122°30'7 2.3
2014-Aug-20 19:24N 48°24' W 122°34'0 0.0
2014-Aug-20 14:22N 48°24' W 122°34'0 0.0
2014-Aug-20 13:33N 48°25' W 122°34'0 0.0
2014-Aug-20 12:31N 48°25' W 122°34'3 2.6
2014-Aug-20 11:31N 48°22' W 122°34'7 6.8
2014-Aug-20 10:33N 48°15' W 122°32'8 7.3
2014-Aug-20 09:28N 48°08' W 122°31'7 7.5
2014-Aug-20 08:33N 48°03' W 122°23'7 7.2
2014-Aug-20 07:33N 47°56' W 122°21'7 7.0
2014-Aug-20 06:33N 47°50' W 122°25'8 8.2
2014-Aug-20 05:33N 47°42' W 122°27'4 4.3
2014-Aug-20 04:33N 47°38' W 122°23'0 0.0
2014-Aug-20 03:33N 47°38' W 122°23'0 0.0
2014-Aug-20 02:33N 47°38' W 122°23'0 0.0
2014-Aug-20 01:33N 47°38' W 122°23'0 0.0
2014-Aug-20 00:33N 47°38' W 122°23'0 0.0
2014-Aug-19 23:33N 47°38' W 122°23'0 0.0
2014-Aug-19 22:33N 47°38' W 122°23'0 0.0
2014-Aug-19 21:33N 47°38' W 122°23'0 0.0
2014-Aug-19 20:33N 47°38' W 122°23'0 0.0
2014-Aug-19 19:33N 47°38' W 122°23'0 0.0
2014-Aug-19 18:33N 47°38' W 122°23'0 0.0
2014-Aug-19 17:33N 47°38' W 122°23'0 0.0
2014-Aug-19 16:33N 47°38' W 122°23'0 0.0
2014-Aug-19 15:33N 47°38' W 122°23'0 0.0
2014-Aug-19 14:33N 47°38' W 122°23'0 0.0
2014-Aug-19 13:33N 47°38' W 122°23'0 0.0
2014-Aug-19 12:33N 47°38' W 122°23'0 0.0
2014-Aug-19 11:33N 47°38' W 122°23'0 0.0
2014-Aug-19 10:33N 47°38' W 122°23'0 0.0
2014-Aug-19 09:33N 47°38' W 122°23'0 0.0
2014-Aug-19 08:33N 47°38' W 122°23'0 0.0
2014-Aug-19 07:33N 47°38' W 122°23'0 0.0
2014-Aug-19 06:33N 47°38' W 122°23'0 0.0
2014-Aug-19 05:33N 47°38' W 122°23'0 0.0
2014-Aug-19 04:33N 47°38' W 122°23'0 0.0
2014-Aug-19 03:33N 47°38' W 122°23'0 0.0
2014-Aug-19 02:33N 47°38' W 122°23'0 0.0
2014-Aug-19 01:33N 47°38' W 122°23'5 4.9
2014-Aug-19 00:33N 47°43' W 122°26'8 8.3
2014-Aug-18 23:33N 47°51' W 122°24'9 8.8
2014-Aug-18 22:33N 47°59' W 122°21'11 8.6
2014-Aug-18 21:15N 48°08' W 122°31'6 8.5
2014-Aug-18 20:33N 48°14' W 122°33'6 6.4
2014-Aug-18 19:33N 48°20' W 122°32'4 0.3
2014-Aug-18 06:12N 48°24' W 122°34'2 1.5
2014-Aug-18 04:32N 48°22' W 122°34'7 7.3
2014-Aug-18 03:33N 48°15' W 122°32'8 7.6
2014-Aug-18 02:32N 48°07' W 122°30'8 7.6
2014-Aug-18 01:29N 48°02' W 122°22'7 7.6
2014-Aug-18 00:33N 47°55' W 122°21'  

Dump ship's entire track history